Time;durP1;ratioP1;P1;durP2;ratioP2;P2;SDS_P1;SDS_P2;PMS_P1;PMS_P2;Temp;Humidity;BMP_temperature;BMP_pressure;BME280_temperature;BME280_humidity;BME280_pressure;Samples;Min_cycle;Max_cycle;Signal;HPM_P1;HPM_P2
2022/03/03 00:02:01;;;;;;;74.65;35.30;;;3.60;99.90;;;;;;5089863;28;20024;-70
2022/03/03 00:04:26;;;;;;;75.28;35.67;;;3.60;99.90;;;;;;5070458;28;20051;-70
2022/03/03 00:06:52;;;;;;;68.78;31.73;;;3.60;99.90;;;;;;5093960;28;20024;-70
2022/03/03 00:09:18;;;;;;;72.75;34.45;;;3.50;99.90;;;;;;5092795;28;20024;-71
2022/03/03 00:11:43;;;;;;;77.65;35.38;;;3.50;99.90;;;;;;5094570;28;20062;-70
2022/03/03 00:14:09;;;;;;;74.05;34.97;;;3.40;99.90;;;;;;5091963;28;20477;-70
2022/03/03 00:16:35;;;;;;;74.30;35.17;;;3.40;99.90;;;;;;5090597;28;20042;-70
2022/03/03 00:19:01;;;;;;;65.32;33.20;;;3.30;99.90;;;;;;5091657;28;20058;-70
2022/03/03 00:21:26;;;;;;;78.55;34.97;;;3.30;99.90;;;;;;5091611;28;20029;-70
2022/03/03 00:23:52;;;;;;;76.00;35.22;;;3.20;99.90;;;;;;5072827;28;20032;-70
2022/03/03 00:26:18;;;;;;;73.70;34.03;;;3.20;99.90;;;;;;5098006;28;20036;-70
2022/03/03 00:28:44;;;;;;;65.00;32.55;;;3.20;99.90;;;;;;5095294;28;20024;-70
2022/03/03 00:31:09;;;;;;;70.40;34.75;;;3.20;99.90;;;;;;5093461;28;20028;-70
2022/03/03 00:33:35;;;;;;;80.85;35.80;;;3.20;99.90;;;;;;5090679;28;20028;-70
2022/03/03 00:36:01;;;;;;;81.18;38.00;;;3.10;99.90;;;;;;5077807;28;20103;-70
2022/03/03 00:38:26;;;;;;;81.20;39.70;;;3.10;99.90;;;;;;5073962;28;20077;-70
2022/03/03 00:40:53;;;;;;;94.90;39.58;;;3.10;99.90;;;;;;5090561;28;20028;-69
2022/03/03 00:43:19;;;;;;;94.28;40.80;;;3.00;99.90;;;;;;5092825;28;20015;-69
2022/03/03 00:45:45;;;;;;;92.40;37.80;;;3.00;99.90;;;;;;5077365;28;20032;-73
2022/03/03 00:48:11;;;;;;;85.20;37.65;;;3.00;99.90;;;;;;5087483;28;20028;-71
2022/03/03 00:50:36;;;;;;;83.40;36.45;;;3.00;99.90;;;;;;5089223;28;20020;-71
2022/03/03 00:53:03;;;;;;;73.47;34.88;;;2.90;99.90;;;;;;5069601;28;20485;-71
2022/03/03 00:55:29;;;;;;;76.60;32.47;;;2.90;99.90;;;;;;5071724;28;20099;-72
2022/03/03 00:57:55;;;;;;;72.97;34.13;;;2.90;99.90;;;;;;5069250;28;20103;-72
2022/03/03 01:00:20;;;;;;;69.20;32.33;;;2.90;99.90;;;;;;5090064;28;20493;-71
2022/03/03 01:02:48;;;;;;;77.30;35.08;;;2.90;99.90;;;;;;5088374;28;20030;-71
2022/03/03 01:05:14;;;;;;;77.03;32.97;;;2.90;99.90;;;;;;5087500;28;20047;-71
2022/03/03 01:07:40;;;;;;;70.10;33.33;;;2.90;99.90;;;;;;5069274;28;20089;-71
2022/03/03 01:10:07;;;;;;;73.78;33.38;;;2.90;99.90;;;;;;5087311;28;20041;-72
2022/03/03 01:12:33;;;;;;;72.50;34.25;;;2.90;99.90;;;;;;5088207;28;20043;-71
2022/03/03 01:14:59;;;;;;;70.63;31.75;;;2.90;99.90;;;;;;5069620;28;20392;-72
2022/03/03 01:17:25;;;;;;;71.65;33.72;;;2.90;99.90;;;;;;5069071;28;20020;-71
2022/03/03 01:19:50;;;;;;;72.35;33.33;;;2.80;99.90;;;;;;5056994;28;20082;-72
2022/03/03 01:22:16;;;;;;;72.22;33.45;;;2.90;99.90;;;;;;5069108;28;20115;-71
2022/03/03 01:24:45;;;;;;;69.25;32.53;;;2.90;99.90;;;;;;5069338;28;20028;-72
2022/03/03 01:27:12;;;;;;;66.25;30.38;;;2.90;99.90;;;;;;5081753;28;20036;-72
2022/03/03 01:29:38;;;;;;;67.28;30.02;;;2.80;99.90;;;;;;5089279;28;20043;-72
2022/03/03 01:32:06;;;;;;;64.05;30.10;;;2.80;99.90;;;;;;5054110;28;20024;-72
2022/03/03 01:34:31;;;;;;;67.90;32.80;;;2.80;99.90;;;;;;5073680;28;20026;-72
2022/03/03 01:36:58;;;;;;;65.95;29.95;;;2.80;99.90;;;;;;5068512;28;20537;-72
2022/03/03 01:39:25;;;;;;;66.57;31.63;;;2.80;99.90;;;;;;5050985;28;20093;-71
2022/03/03 01:41:51;;;;;;;65.07;30.67;;;2.80;99.90;;;;;;5064977;28;20530;-72
2022/03/03 01:44:16;;;;;;;66.50;29.50;;;2.80;99.90;;;;;;5066795;28;20028;-72
2022/03/03 01:46:53;;;;;;;63.40;29.77;;;2.80;99.90;;;;;;5086210;28;20043;-71
2022/03/03 01:49:19;;;;;;;68.10;30.67;;;2.80;99.90;;;;;;5068513;28;20119;-72
2022/03/03 01:51:45;;;;;;;72.53;30.90;;;2.80;99.90;;;;;;5086383;28;20028;-71
2022/03/03 01:54:12;;;;;;;61.92;29.00;;;2.80;99.90;;;;;;5084432;28;20040;-71
2022/03/03 01:56:40;;;;;;;68.38;30.13;;;2.80;99.90;;;;;;5069068;28;20048;-72
2022/03/03 01:59:07;;;;;;;62.80;30.45;;;2.70;99.90;;;;;;5050867;28;20382;-70
2022/03/03 02:01:33;;;;;;;62.08;28.60;;;2.70;99.90;;;;;;5084086;28;20020;-72
2022/03/03 02:03:59;;;;;;;68.22;33.03;;;2.70;99.90;;;;;;5064432;28;20028;-72
2022/03/03 02:06:25;;;;;;;64.40;29.60;;;2.70;99.90;;;;;;5086866;28;20030;-70
2022/03/03 02:08:52;;;;;;;70.43;30.48;;;2.70;99.90;;;;;;5087813;28;20108;-72
2022/03/03 02:11:20;;;;;;;66.68;30.33;;;2.70;99.90;;;;;;5063873;28;20035;-71
2022/03/03 02:13:46;;;;;;;70.13;30.48;;;2.60;99.90;;;;;;5064327;28;20032;-72
2022/03/03 02:16:11;;;;;;;66.70;30.38;;;2.60;99.90;;;;;;5086300;28;20028;-71
2022/03/03 02:18:44;;;;;;;63.33;29.05;;;2.60;99.90;;;;;;5078441;28;20028;-71
2022/03/03 02:21:15;;;;;;;65.07;28.38;;;2.60;99.90;;;;;;5085359;28;20479;-72
2022/03/03 02:23:41;;;;;;;61.38;29.13;;;2.60;99.90;;;;;;5084358;28;20032;-72
2022/03/03 02:26:10;;;;;;;60.35;27.80;;;2.60;99.90;;;;;;5086974;28;20024;-72
2022/03/03 02:28:36;;;;;;;62.70;29.35;;;2.60;99.90;;;;;;5067293;28;20393;-71
2022/03/03 02:31:01;;;;;;;57.38;26.58;;;2.60;99.90;;;;;;5084442;28;20032;-72
2022/03/03 02:33:27;;;;;;;64.38;30.00;;;2.60;99.90;;;;;;5063033;28;20035;-71
2022/03/03 02:35:53;;;;;;;62.70;28.73;;;2.60;99.90;;;;;;5086405;28;20173;-70
2022/03/03 02:38:18;;;;;;;61.65;29.13;;;2.60;99.90;;;;;;5060135;28;20024;-69
2022/03/03 02:40:44;;;;;;;63.38;29.42;;;2.60;99.90;;;;;;5068989;28;20069;-69
2022/03/03 02:43:10;;;;;;;59.10;26.17;;;2.50;99.90;;;;;;5063975;28;20427;-70
2022/03/03 02:45:35;;;;;;;59.72;27.48;;;2.50;99.90;;;;;;5086196;28;20056;-69
2022/03/03 02:48:01;;;;;;;55.13;26.27;;;2.50;99.90;;;;;;5083655;28;20104;-70
2022/03/03 02:50:28;;;;;;;61.13;28.55;;;2.50;99.90;;;;;;5089451;28;20035;-70
2022/03/03 02:52:54;;;;;;;60.25;28.33;;;2.40;99.90;;;;;;5096571;28;20047;-70
2022/03/03 02:55:20;;;;;;;62.20;27.90;;;2.30;99.90;;;;;;5081937;28;20393;-69
2022/03/03 02:57:56;;;;;;;56.45;27.17;;;2.30;99.90;;;;;;5084475;28;20107;-69
2022/03/03 03:00:38;;;;;;;58.53;26.10;;;2.30;99.90;;;;;;5083110;28;20385;-70
2022/03/03 03:03:04;;;;;;;58.80;26.08;;;2.20;99.90;;;;;;5076319;28;20086;-69
2022/03/03 03:05:30;;;;;;;56.75;26.08;;;2.30;99.90;;;;;;5086778;28;20040;-69
2022/03/03 03:07:57;;;;;;;52.40;25.00;;;2.30;99.90;;;;;;5084416;28;20028;-69
2022/03/03 03:10:23;;;;;;;55.47;24.88;;;2.30;99.90;;;;;;5084240;28;20107;-69
2022/03/03 03:12:49;;;;;;;50.90;23.92;;;2.30;99.90;;;;;;5066899;28;20115;-69
2022/03/03 03:15:16;;;;;;;54.55;25.52;;;2.30;99.90;;;;;;5064651;28;20058;-69
2022/03/03 03:17:41;;;;;;;51.58;23.92;;;2.20;99.90;;;;;;5058022;28;20024;-69
2022/03/03 03:20:08;;;;;;;55.75;25.13;;;2.20;99.90;;;;;;5095397;28;20020;-69
2022/03/03 03:22:35;;;;;;;51.45;23.73;;;2.10;99.90;;;;;;5050640;28;20032;-69
2022/03/03 03:25:05;;;;;;;58.15;25.77;;;2.10;99.90;;;;;;5064848;28;20103;-69
2022/03/03 03:27:31;;;;;;;56.83;26.45;;;2.10;99.90;;;;;;5089365;22;20523;-69
2022/03/03 03:29:57;;;;;;;58.33;25.55;;;2.20;99.90;;;;;;5087623;28;20028;-69
2022/03/03 03:32:22;;;;;;;56.80;25.85;;;2.20;99.90;;;;;;5067251;28;20103;-69
2022/03/03 03:34:48;;;;;;;56.47;24.63;;;2.20;99.90;;;;;;5088739;28;20399;-69
2022/03/03 03:37:14;;;;;;;52.25;25.48;;;2.20;99.90;;;;;;5089107;28;20115;-69
2022/03/03 03:39:39;;;;;;;56.17;25.83;;;2.20;99.90;;;;;;5071926;28;20031;-69
2022/03/03 03:42:05;;;;;;;54.83;25.23;;;2.20;99.90;;;;;;5089211;28;20020;-69
2022/03/03 03:44:31;;;;;;;60.22;25.52;;;2.10;99.90;;;;;;5090237;28;20089;-69
2022/03/03 03:46:57;;;;;;;57.88;25.98;;;2.10;99.90;;;;;;5086376;28;20040;-69
2022/03/03 03:49:23;;;;;;;56.63;26.98;;;2.10;99.90;;;;;;5086251;28;20349;-69
2022/03/03 03:51:50;;;;;;;55.63;26.60;;;2.10;99.90;;;;;;5090169;28;20024;-69
2022/03/03 03:54:15;;;;;;;58.78;26.83;;;2.10;99.90;;;;;;5088008;28;20691;-69
2022/03/03 03:56:41;;;;;;;51.80;25.17;;;2.10;99.90;;;;;;5088966;28;20051;-69
2022/03/03 03:59:07;;;;;;;50.63;22.55;;;2.10;99.90;;;;;;5087629;28;20445;-69
2022/03/03 04:01:33;;;;;;;50.58;24.33;;;2.10;99.90;;;;;;5086099;28;20124;-69
2022/03/03 04:03:59;;;;;;;47.72;23.13;;;2.10;99.90;;;;;;5084980;28;20081;-69
2022/03/03 04:06:25;;;;;;;56.53;23.77;;;2.20;99.90;;;;;;5088858;28;20024;-69
2022/03/03 04:08:50;;;;;;;54.42;24.83;;;2.10;99.90;;;;;;5087990;28;20024;-69
2022/03/03 04:11:16;;;;;;;51.63;24.10;;;2.10;99.90;;;;;;5088508;28;20213;-69
2022/03/03 04:13:42;;;;;;;54.65;24.17;;;2.10;99.90;;;;;;5089932;28;20044;-69
2022/03/03 04:16:07;;;;;;;54.47;24.65;;;2.00;99.90;;;;;;5082643;28;20496;-69
2022/03/03 04:18:33;;;;;;;54.88;25.55;;;2.00;99.90;;;;;;5087421;28;20070;-69
2022/03/03 04:20:59;;;;;;;47.20;23.08;;;2.00;99.90;;;;;;5088100;28;20054;-69
2022/03/03 04:23:24;;;;;;;51.75;23.27;;;2.10;99.90;;;;;;5084224;28;20092;-69
2022/03/03 04:25:50;;;;;;;53.33;23.05;;;2.10;99.90;;;;;;5088991;28;20066;-69
2022/03/03 04:28:16;;;;;;;47.20;22.50;;;2.10;99.90;;;;;;5087220;28;20035;-69
2022/03/03 04:30:41;;;;;;;47.00;21.15;;;2.10;99.90;;;;;;5088124;28;20104;-69
2022/03/03 04:33:07;;;;;;;43.25;21.20;;;2.10;99.90;;;;;;5087555;28;20017;-69
2022/03/03 04:35:32;;;;;;;45.72;20.77;;;2.10;99.90;;;;;;5086759;28;20093;-69
2022/03/03 04:37:58;;;;;;;42.83;20.17;;;2.00;99.90;;;;;;5087395;28;20034;-69
2022/03/03 04:40:24;;;;;;;46.78;20.83;;;2.00;99.90;;;;;;5088399;28;20055;-70
2022/03/03 04:42:50;;;;;;;40.20;18.95;;;2.10;99.90;;;;;;5085893;28;20043;-69
2022/03/03 04:45:15;;;;;;;39.25;19.08;;;2.10;99.90;;;;;;5087710;28;20032;-69
2022/03/03 04:47:41;;;;;;;41.50;19.83;;;2.10;99.90;;;;;;5088408;28;20071;-69
2022/03/03 04:50:08;;;;;;;42.95;19.58;;;2.00;99.90;;;;;;5065983;28;20541;-69
2022/03/03 04:52:33;;;;;;;44.25;21.25;;;2.00;99.90;;;;;;5087001;28;20524;-69
2022/03/03 04:54:59;;;;;;;45.33;19.10;;;2.00;99.90;;;;;;5086380;28;20100;-69
2022/03/03 04:57:25;;;;;;;40.70;19.02;;;1.90;99.90;;;;;;5088035;28;20081;-68
2022/03/03 04:59:51;;;;;;;43.15;19.15;;;1.90;99.90;;;;;;5100160;27;20024;-69
2022/03/03 05:02:16;;;;;;;37.78;18.35;;;1.90;99.90;;;;;;5082689;28;20122;-69
2022/03/03 05:04:42;;;;;;;39.60;18.35;;;1.90;99.90;;;;;;5087367;28;20060;-68
2022/03/03 05:07:08;;;;;;;43.90;19.83;;;1.90;99.90;;;;;;5081993;28;20067;-69
2022/03/03 05:09:34;;;;;;;44.95;20.10;;;1.90;99.90;;;;;;5068890;28;20048;-69
2022/03/03 05:12:00;;;;;;;41.88;19.50;;;1.80;99.90;;;;;;5086270;28;20108;-69
2022/03/03 05:14:26;;;;;;;43.78;19.85;;;1.80;99.90;;;;;;5081438;28;20023;-69
2022/03/03 05:16:51;;;;;;;40.33;18.83;;;1.80;99.90;;;;;;5086629;28;20024;-69
2022/03/03 05:19:17;;;;;;;43.35;18.35;;;1.80;99.90;;;;;;5085663;28;20078;-69
2022/03/03 05:21:43;;;;;;;47.63;20.17;;;1.70;99.90;;;;;;5082116;28;20049;-68
2022/03/03 05:24:08;;;;;;;41.15;19.73;;;1.70;99.90;;;;;;5083448;28;20445;-69
2022/03/03 05:26:34;;;;;;;45.05;20.42;;;1.70;99.90;;;;;;5085617;28;20032;-69
2022/03/03 05:29:01;;;;;;;43.50;19.52;;;1.70;99.90;;;;;;5084283;28;20202;-68
2022/03/03 05:31:26;;;;;;;41.75;19.58;;;1.80;99.90;;;;;;5086977;28;20036;-68
2022/03/03 05:33:52;;;;;;;45.08;19.77;;;1.70;99.90;;;;;;5085063;28;20085;-70
2022/03/03 05:36:23;;;;;;;45.75;19.30;;;1.70;99.90;;;;;;5085911;28;20028;-69
2022/03/03 05:38:49;;;;;;;42.67;19.38;;;1.70;99.90;;;;;;5086172;28;20032;-69
2022/03/03 05:41:15;;;;;;;45.17;20.40;;;1.70;99.90;;;;;;5086136;28;20036;-70
2022/03/03 05:43:41;;;;;;;43.78;20.02;;;1.70;99.90;;;;;;5085962;28;20449;-69
2022/03/03 05:46:06;;;;;;;46.45;20.15;;;1.70;99.90;;;;;;5081563;28;20040;-68
2022/03/03 05:48:32;;;;;;;46.13;19.67;;;1.70;99.90;;;;;;5083367;28;20020;-68
2022/03/03 05:50:58;;;;;;;41.30;18.30;;;1.70;99.90;;;;;;5085678;28;20031;-69
2022/03/03 05:53:24;;;;;;;47.40;20.60;;;1.60;99.90;;;;;;5086292;28;20077;-68
2022/03/03 05:55:58;;;;;;;45.38;19.85;;;1.50;99.90;;;;;;5074559;28;20028;-69
2022/03/03 05:58:32;;;;;;;45.38;20.70;;;1.50;99.90;;;;;;5088156;28;20028;-68
2022/03/03 06:00:58;;;;;;;40.20;18.73;;;1.50;99.90;;;;;;5088707;28;20512;-69
2022/03/03 06:03:28;;;;;;;43.10;19.83;;;1.50;99.90;;;;;;5087049;28;20070;-69
2022/03/03 06:06:01;;;;;;;43.85;20.40;;;1.50;99.90;;;;;;5082799;28;20410;-69
2022/03/03 06:08:39;;;;;;;47.92;20.20;;;1.50;99.90;;;;;;5088975;28;20036;-69
2022/03/03 06:11:08;;;;;;;47.55;19.42;;;1.50;99.90;;;;;;5088103;28;20424;-74
2022/03/03 06:13:43;;;;;;;47.67;20.33;;;1.50;99.90;;;;;;5086433;28;20445;-73
2022/03/03 06:16:09;;;;;;;42.40;19.02;;;1.50;99.90;;;;;;5087550;28;20035;-68
2022/03/03 06:18:36;;;;;;;41.08;20.23;;;1.50;99.90;;;;;;5087071;28;20020;-68
2022/03/03 06:21:03;;;;;;;42.17;18.80;;;1.50;99.90;;;;;;5085766;28;20020;-69
2022/03/03 06:23:30;;;;;;;41.75;18.13;;;1.50;99.90;;;;;;5080807;28;20385;-72
2022/03/03 06:26:08;;;;;;;40.50;19.20;;;1.50;99.90;;;;;;5086358;28;20028;-68
2022/03/03 06:28:34;;;;;;;41.40;19.10;;;1.50;99.90;;;;;;5081560;28;20039;-69
2022/03/03 06:31:00;;;;;;;40.08;17.88;;;1.50;99.90;;;;;;5086065;28;20035;-69
2022/03/03 06:33:26;;;;;;;39.35;17.98;;;1.40;99.90;;;;;;5085361;28;20058;-69
2022/03/03 06:35:52;;;;;;;37.28;16.83;;;1.40;99.90;;;;;;5086440;28;20084;-69
2022/03/03 06:38:18;;;;;;;42.85;18.40;;;1.40;99.90;;;;;;5084076;28;20028;-69
2022/03/03 06:40:44;;;;;;;46.03;19.52;;;1.50;99.90;;;;;;5110450;27;20550;-69
2022/03/03 06:43:10;;;;;;;43.60;19.00;;;1.40;99.90;;;;;;5085015;28;20119;-68
2022/03/03 06:45:35;;;;;;;46.08;19.60;;;1.40;99.90;;;;;;5086328;28;20028;-68
2022/03/03 06:48:04;;;;;;;40.08;17.27;;;1.40;99.90;;;;;;5087035;28;20032;-69
2022/03/03 06:50:30;;;;;;;34.28;15.35;;;1.30;99.90;;;;;;5081700;28;20042;-68
2022/03/03 06:52:56;;;;;;;36.47;16.15;;;1.20;99.90;;;;;;5085861;28;20516;-67
2022/03/03 06:55:24;;;;;;;38.78;16.40;;;1.20;99.90;;;;;;5086145;28;20043;-70
2022/03/03 06:57:54;;;;;;;35.53;17.13;;;1.30;99.90;;;;;;5083988;28;20366;-68
2022/03/03 07:00:22;;;;;;;31.70;15.20;;;1.30;99.90;;;;;;5084544;28;20024;-69
2022/03/03 07:02:48;;;;;;;36.83;15.00;;;1.30;99.90;;;;;;5070213;28;20027;-68
2022/03/03 07:05:15;;;;;;;33.55;14.93;;;1.30;99.90;;;;;;5087835;28;20107;-70
2022/03/03 07:07:46;;;;;;;32.67;15.18;;;1.30;99.90;;;;;;5087150;28;20050;-68
2022/03/03 07:10:14;;;;;;;34.50;16.25;;;1.40;99.90;;;;;;5088014;28;20038;-69
2022/03/03 07:12:40;;;;;;;34.83;15.45;;;1.40;99.90;;;;;;5090113;28;20536;-71
2022/03/03 07:15:08;;;;;;;35.28;16.50;;;1.40;99.90;;;;;;5090700;28;20051;-70
2022/03/03 07:17:51;;;;;;;34.50;15.23;;;1.40;99.90;;;;;;5085860;28;20334;-71
2022/03/03 07:20:35;;;;;;;33.65;15.52;;;1.40;99.90;;;;;;5083754;28;20036;-70
2022/03/03 07:23:13;;;;;;;35.13;15.43;;;1.40;99.90;;;;;;5084560;28;20434;-70
2022/03/03 07:25:41;;;;;;;35.58;17.25;;;1.40;99.90;;;;;;5090949;28;23991;-69
2022/03/03 07:28:09;;;;;;;34.40;14.57;;;1.50;99.90;;;;;;5084154;28;20452;-70
2022/03/03 07:30:41;;;;;;;33.83;16.77;;;1.60;99.90;;;;;;5087447;28;20506;-69
2022/03/03 07:33:08;;;;;;;;;;;1.60;99.90;;;;;;5084359;28;20504;-70
2022/03/03 07:35:35;;;;;;;32.65;14.57;;;1.60;99.90;;;;;;5080897;28;20018;-70
2022/03/03 07:38:09;;;;;;;34.58;15.18;;;1.60;99.90;;;;;;5080708;28;20399;-69
2022/03/03 07:40:37;;;;;;;32.63;13.45;;;1.60;99.90;;;;;;5083554;28;20021;-70
2022/03/03 07:43:03;;;;;;;30.90;13.63;;;1.60;99.90;;;;;;5084321;28;20104;-72
2022/03/03 07:45:29;;;;;;;27.92;12.43;;;1.60;99.90;;;;;;5080385;28;20102;-71
2022/03/03 07:47:56;;;;;;;27.42;11.88;;;1.70;99.90;;;;;;5081989;28;20134;-70
2022/03/03 07:50:27;;;;;;;24.52;12.05;;;1.70;99.90;;;;;;5085280;28;20397;-70
2022/03/03 07:52:54;;;;;;;23.90;11.20;;;1.80;99.90;;;;;;5109313;27;20051;-71
2022/03/03 07:55:20;;;;;;;25.80;10.68;;;1.80;99.90;;;;;;5085814;28;20031;-70
2022/03/03 07:57:56;;;;;;;28.02;10.85;;;1.80;99.90;;;;;;5082162;28;20034;-72
2022/03/03 08:00:22;;;;;;;24.02;10.65;;;1.80;99.90;;;;;;5082075;28;20111;-69
2022/03/03 08:02:53;;;;;;;23.38;10.65;;;1.90;99.90;;;;;;5085564;28;20111;-69
2022/03/03 08:05:23;;;;;;;27.52;11.80;;;1.90;99.90;;;;;;5085506;28;20568;-69
2022/03/03 08:07:52;;;;;;;31.45;11.93;;;2.00;99.90;;;;;;5085967;28;20334;-69
2022/03/03 08:10:18;;;;;;;22.75;11.07;;;2.00;99.90;;;;;;5084430;28;20035;-70
2022/03/03 08:12:45;;;;;;;27.17;11.55;;;2.10;99.90;;;;;;5109603;27;20055;-69
2022/03/03 08:15:12;;;;;;;25.40;10.98;;;2.10;99.90;;;;;;5081760;28;20592;-69
2022/03/03 08:17:37;;;;;;;21.25;10.57;;;2.10;99.90;;;;;;5085639;28;20481;-69
2022/03/03 08:20:07;;;;;;;26.08;11.10;;;2.20;99.90;;;;;;5084518;28;20067;-69
2022/03/03 08:22:34;;;;;;;19.13;9.50;;;2.20;99.90;;;;;;5080204;28;20034;-69
2022/03/03 08:24:59;;;;;;;27.13;12.30;;;2.20;99.90;;;;;;5079923;28;20289;-69
2022/03/03 08:27:26;;;;;;;51.13;20.67;;;2.30;99.90;;;;;;5081833;28;20039;-69
2022/03/03 08:29:54;;;;;;;28.92;12.73;;;2.30;99.90;;;;;;5081134;28;20024;-69
2022/03/03 08:32:30;;;;;;;28.02;11.60;;;2.40;99.90;;;;;;5084908;28;20486;-69
2022/03/03 08:35:18;;;;;;;26.55;12.45;;;2.40;99.90;;;;;;5086104;28;20046;-69
2022/03/03 08:37:50;;;;;;;28.35;11.05;;;2.50;99.90;;;;;;5080301;28;20105;-69
2022/03/03 08:40:19;;;;;;;26.00;12.27;;;2.60;99.90;;;;;;5084244;28;20027;-69
2022/03/03 08:42:48;;;;;;;22.73;11.25;;;2.60;99.90;;;;;;5083347;28;20020;-69
2022/03/03 08:45:18;;;;;;;23.27;10.98;;;2.70;99.90;;;;;;5082296;28;20573;-69
2022/03/03 08:47:50;;;;;;;26.55;11.30;;;2.70;99.90;;;;;;5082909;28;20032;-69
2022/03/03 08:50:15;;;;;;;24.98;12.05;;;2.80;99.90;;;;;;5084296;28;20032;-69
2022/03/03 08:52:43;;;;;;;28.65;12.15;;;2.80;99.90;;;;;;5086321;28;20039;-70
2022/03/03 08:55:11;;;;;;;29.60;11.75;;;2.80;99.90;;;;;;5083050;28;20362;-69
2022/03/03 08:57:38;;;;;;;30.05;13.32;;;2.80;99.90;;;;;;5074568;28;20037;-69
2022/03/03 09:00:08;;;;;;;25.48;12.07;;;2.80;99.90;;;;;;5077659;28;20044;-69
2022/03/03 09:02:35;;;;;;;28.67;12.80;;;2.80;99.90;;;;;;5083319;28;21423;-69
2022/03/03 09:05:02;;;;;;;25.08;12.10;;;2.80;99.90;;;;;;5081599;28;20187;-69
2022/03/03 09:07:28;;;;;;;23.20;10.88;;;2.90;99.90;;;;;;5083243;28;20111;-70
2022/03/03 09:09:56;;;;;;;24.58;11.60;;;2.90;99.90;;;;;;5085634;28;20028;-69
2022/03/03 09:12:22;;;;;;;23.13;11.70;;;3.00;99.90;;;;;;5085355;28;20077;-69
2022/03/03 09:14:48;;;;;;;24.25;10.77;;;3.10;99.90;;;;;;5084133;28;20067;-69
2022/03/03 09:17:13;;;;;;;18.55;9.43;;;3.10;99.90;;;;;;5081359;28;20047;-69
2022/03/03 09:19:39;;;;;;;20.20;8.90;;;3.20;99.90;;;;;;5080401;28;20020;-68
2022/03/03 09:22:05;;;;;;;21.15;10.10;;;3.20;99.90;;;;;;5085436;28;20599;-68
2022/03/03 09:24:31;;;;;;;23.05;9.88;;;3.20;99.90;;;;;;5086060;28;20036;-68
2022/03/03 09:26:59;;;;;;;17.88;9.13;;;3.30;99.90;;;;;;5102007;22;20056;-69
2022/03/03 09:29:26;;;;;;;19.98;10.00;;;3.30;99.90;;;;;;5053167;28;20020;-68
2022/03/03 09:31:52;;;;;;;23.27;10.38;;;3.20;99.90;;;;;;5040794;28;20393;-68
2022/03/03 09:34:17;;;;;;;21.90;10.00;;;3.30;99.90;;;;;;5072883;28;20037;-68
2022/03/03 09:36:43;;;;;;;20.55;9.65;;;3.30;99.90;;;;;;5060293;28;20025;-69
2022/03/03 09:39:12;;;;;;;21.50;9.95;;;3.40;99.90;;;;;;5062083;28;20049;-69
2022/03/03 09:41:38;;;;;;;22.92;9.25;;;3.40;99.90;;;;;;5059923;28;20556;-69
2022/03/03 09:44:04;;;;;;;21.35;9.80;;;3.50;99.90;;;;;;5060694;28;20100;-69
2022/03/03 09:46:30;;;;;;;18.20;9.23;;;3.50;99.90;;;;;;5061017;28;20074;-69
2022/03/03 09:48:56;;;;;;;21.80;10.07;;;3.60;99.90;;;;;;5059337;28;20097;-70
2022/03/03 09:51:22;;;;;;;19.80;9.98;;;3.60;99.90;;;;;;5057903;28;20920;-69
2022/03/03 09:53:51;;;;;;;18.02;8.80;;;3.60;99.90;;;;;;5072116;28;20024;-69
2022/03/03 09:56:17;;;;;;;17.70;7.97;;;3.60;99.90;;;;;;5062970;28;20072;-70
2022/03/03 09:58:43;;;;;;;16.02;7.47;;;3.60;99.90;;;;;;5060564;28;20490;-69
2022/03/03 10:01:09;;;;;;;19.08;7.88;;;3.60;99.90;;;;;;5057551;28;20044;-70
2022/03/03 10:03:36;;;;;;;16.00;7.32;;;3.50;99.90;;;;;;5058960;28;20164;-70
2022/03/03 10:06:02;;;;;;;12.93;7.07;;;3.50;99.90;;;;;;5059007;28;20028;-70
2022/03/03 10:08:32;;;;;;;15.07;7.38;;;3.40;99.90;;;;;;5061647;28;20090;-69
2022/03/03 10:11:00;;;;;;;15.20;7.53;;;3.30;99.90;;;;;;5056306;28;20032;-69
2022/03/03 10:13:43;;;;;;;13.50;6.20;;;3.30;99.90;;;;;;5041901;28;20043;-69
2022/03/03 10:16:09;;;;;;;15.38;7.90;;;3.30;99.90;;;;;;5060299;28;20090;-70
2022/03/03 10:18:36;;;;;;;15.00;7.13;;;3.30;99.90;;;;;;5061786;28;20393;-69
2022/03/03 10:21:04;;;;;;;13.75;7.03;;;3.30;99.90;;;;;;5060525;28;20033;-69
2022/03/03 10:23:33;;;;;;;13.55;6.85;;;3.20;99.90;;;;;;5059622;28;20025;-70
2022/03/03 10:26:03;;;;;;;14.45;7.22;;;3.30;99.90;;;;;;5060311;28;20025;-70
2022/03/03 10:28:34;;;;;;;14.10;7.90;;;3.40;99.90;;;;;;5060231;28;20497;-69
2022/03/03 10:31:03;;;;;;;15.88;7.78;;;3.40;99.90;;;;;;5061735;28;20109;-69
2022/03/03 10:33:31;;;;;;;13.57;7.20;;;3.50;99.90;;;;;;5060820;28;20485;-69
2022/03/03 10:36:09;;;;;;;13.63;7.03;;;3.60;99.90;;;;;;5059648;28;20513;-69
2022/03/03 10:38:44;;;;;;;13.52;6.90;;;3.70;99.90;;;;;;5063014;28;20059;-69
2022/03/03 10:41:26;;;;;;;12.13;6.50;;;3.80;99.90;;;;;;5060732;28;20389;-68
2022/03/03 10:43:51;;;;;;;12.43;6.53;;;3.80;99.90;;;;;;5045327;28;20510;-69
2022/03/03 10:46:17;;;;;;;12.95;5.85;;;3.70;99.90;;;;;;5061124;28;20056;-68
2022/03/03 10:48:43;;;;;;;10.55;5.55;;;3.70;99.90;;;;;;5066724;28;20020;-69
2022/03/03 10:51:13;;;;;;;11.48;5.63;;;3.70;99.90;;;;;;5064731;28;20067;-70
2022/03/03 10:53:38;;;;;;;12.20;5.75;;;3.80;99.90;;;;;;5061401;28;20490;-69
2022/03/03 10:56:06;;;;;;;10.98;5.78;;;3.90;99.90;;;;;;5059167;28;20065;-69
2022/03/03 10:58:54;;;;;;;11.45;6.30;;;4.00;99.90;;;;;;5062511;28;20017;-70
2022/03/03 11:01:23;;;;;;;14.30;6.90;;;4.10;99.90;;;;;;5068340;28;20048;-70
2022/03/03 11:03:50;;;;;;;13.30;6.25;;;4.20;99.90;;;;;;5060210;28;20021;-70
2022/03/03 11:06:18;;;;;;;10.45;5.60;;;4.30;99.90;;;;;;5049669;28;20036;-70
2022/03/03 11:08:46;;;;;;;10.20;5.10;;;4.40;99.90;;;;;;5060194;28;20370;-70
2022/03/03 11:11:11;;;;;;;12.35;5.72;;;4.50;99.90;;;;;;5058477;28;20036;-70
2022/03/03 11:13:39;;;;;;;9.32;5.30;;;4.60;99.90;;;;;;5056799;28;20032;-69
2022/03/03 11:16:08;;;;;;;12.85;6.20;;;4.60;99.90;;;;;;5057805;28;20569;-69
2022/03/03 11:18:35;;;;;;;10.18;5.18;;;4.60;99.90;;;;;;5059081;28;20033;-69
2022/03/03 11:21:01;;;;;;;11.32;5.57;;;4.60;99.90;;;;;;5060223;28;20021;-69
2022/03/03 11:23:39;;;;;;;10.30;6.30;;;4.70;99.90;;;;;;5068525;28;20029;-69
2022/03/03 11:26:08;;;;;;;9.40;5.28;;;4.80;99.90;;;;;;5059950;28;20059;-70
2022/03/03 11:28:36;;;;;;;9.65;5.93;;;4.80;99.90;;;;;;5062703;28;20044;-70
2022/03/03 11:31:21;;;;;;;10.25;5.35;;;4.70;99.90;;;;;;5060053;28;20029;-70
2022/03/03 11:33:47;;;;;;;11.30;5.75;;;4.80;99.90;;;;;;5072087;28;20048;-74
2022/03/03 11:36:22;;;;;;;9.93;4.90;;;5.00;99.90;;;;;;5056213;28;20033;-71
2022/03/03 11:38:53;;;;;;;11.50;5.43;;;5.20;99.90;;;;;;5058902;28;20032;-73
2022/03/03 11:41:23;;;;;;;10.63;5.57;;;5.50;99.90;;;;;;5060324;28;20043;-71
2022/03/03 11:43:59;;;;;;;9.57;5.20;;;5.60;99.90;;;;;;5060038;28;20028;-72
2022/03/03 11:46:44;;;;;;;9.82;5.70;;;5.80;99.90;;;;;;5081449;28;20032;-72
2022/03/03 11:49:11;;;;;;;11.95;6.18;;;5.80;99.90;;;;;;5055493;28;20036;-72
2022/03/03 11:51:37;;;;;;;10.45;5.43;;;5.70;99.90;;;;;;5063219;28;20022;-72
2022/03/03 11:54:10;;;;;;;11.52;5.72;;;5.60;99.90;;;;;;5061949;28;20025;-72
2022/03/03 11:57:09;;;;;;;10.15;5.68;;;5.60;99.90;;;;;;5045482;28;20329;-74
2022/03/03 11:59:48;;;;;;;12.70;5.65;;;5.90;99.90;;;;;;5083185;28;20023;-72
2022/03/03 12:02:53;;;;;;;10.82;6.10;;;5.90;99.90;;;;;;5061386;28;20029;-76
2022/03/03 12:05:29;;;;;;;10.43;5.78;;;5.80;99.90;;;;;;5064393;28;20438;-69
2022/03/03 12:07:58;;;;;;;12.07;6.55;;;5.90;99.90;;;;;;5063163;28;20031;-69
2022/03/03 12:10:24;;;;;;;11.23;5.95;;;6.10;99.90;;;;;;5061826;28;20134;-70
2022/03/03 12:12:50;;;;;;;11.95;5.20;;;6.20;99.90;;;;;;5063103;28;20759;-68
2022/03/03 12:15:17;;;;;;;8.80;5.05;;;6.30;99.90;;;;;;5043645;28;20124;-68
2022/03/03 12:17:46;;;;;;;9.90;5.38;;;6.40;99.90;;;;;;5061065;28;20110;-69
2022/03/03 12:20:24;;;;;;;10.02;5.78;;;6.20;99.90;;;;;;5059677;28;20065;-70
2022/03/03 12:23:13;;;;;;;10.65;5.80;;;6.10;99.90;;;;;;5057266;28;20067;-70
2022/03/03 12:25:47;;;;;;;9.55;5.35;;;5.90;99.90;;;;;;5062169;28;20064;-73
2022/03/03 12:28:18;;;;;;;10.05;5.20;;;5.70;99.90;;;;;;5062566;28;20060;-70
2022/03/03 12:30:46;;;;;;;9.30;5.10;;;5.60;99.90;;;;;;5064023;28;20023;-70
2022/03/03 12:33:22;;;;;;;9.10;5.20;;;5.40;99.90;;;;;;5061026;28;20029;-71
2022/03/03 12:35:49;;;;;;;13.73;5.68;;;5.30;99.90;;;;;;5061646;28;20111;-70
2022/03/03 12:38:15;;;;;;;10.25;5.15;;;5.30;99.90;;;;;;5063268;28;20379;-70
2022/03/03 12:40:42;;;;;;;12.65;5.50;;;5.20;99.90;;;;;;5068926;28;20024;-69
2022/03/03 12:43:16;;;;;;;10.63;5.40;;;5.30;99.90;;;;;;5059268;28;20482;-70
2022/03/03 12:45:43;;;;;;;9.77;5.03;;;5.40;99.90;;;;;;5063470;28;20032;-72